ENST/SSJ METAR and TAF weather

Enter ICAO airport designator
Station Type Date Time Source
ENST METAR 2020/07/11 08:50 UTC NOAA

ENST 110850Z 19014KT 9999 FEW018 BKN055 13/07 Q1008 RMK WIND 300FT 19017KT


Station Type Date Time Source
ENST Decoded METAR 2020/07/11 08:50 UTC NOAA

Sandnessjoen / Stokka, Norway (ENST) 65-58N 012-28E 17M
Jul 11, 2020 - 04:50 AM EDT / 2020.07.11 0850 UTC
Wind: from the S (190 degrees) at 16 MPH (14 KT):0
Visibility: greater than 7 mile(s):0
Sky conditions: mostly cloudy
Temperature: 55 F (13 C)
Dew Point: 44 F (7 C)
Relative Humidity: 66%
Pressure (altimeter): 29.77 in. Hg (1008 hPa)
ob: ENST 110850Z 19014KT 9999 FEW018 BKN055 13/07 Q1008 RMK WIND 300FT 19017KT
cycle: 9

Station Type Date Time Source
ENST TAF UTC NOAA

Error!

Example: see airport list